sensor_id;sensor_type;location;lat;lon;timestamp;temperature;humidity
61351;DHT22;47119;49.130;9.218;2023-09-18T00:00:14;21.18;76.54
61351;DHT22;47119;49.130;9.218;2023-09-18T00:02:41;21.16;76.51
61351;DHT22;47119;49.130;9.218;2023-09-18T00:05:12;21.15;76.51
61351;DHT22;47119;49.130;9.218;2023-09-18T00:07:40;21.14;76.53
61351;DHT22;47119;49.130;9.218;2023-09-18T00:10:07;21.16;76.57
61351;DHT22;47119;49.130;9.218;2023-09-18T00:12:35;21.18;76.65
61351;DHT22;47119;49.130;9.218;2023-09-18T00:15:05;21.15;76.62
61351;DHT22;47119;49.130;9.218;2023-09-18T00:17:34;21.14;76.69
61351;DHT22;47119;49.130;9.218;2023-09-18T00:20:01;21.14;76.65
61351;DHT22;47119;49.130;9.218;2023-09-18T00:22:34;21.16;76.88
61351;DHT22;47119;49.130;9.218;2023-09-18T00:25:01;21.16;76.71
61351;DHT22;47119;49.130;9.218;2023-09-18T00:27:28;21.12;76.77
61351;DHT22;47119;49.130;9.218;2023-09-18T00:29:56;21.15;76.84
61351;DHT22;47119;49.130;9.218;2023-09-18T00:32:25;21.14;76.93
61351;DHT22;47119;49.130;9.218;2023-09-18T00:34:53;21.12;76.81
61351;DHT22;47119;49.130;9.218;2023-09-18T00:37:23;21.12;76.93
61351;DHT22;47119;49.130;9.218;2023-09-18T00:39:52;21.12;76.78
61351;DHT22;47119;49.130;9.218;2023-09-18T00:42:20;21.11;76.89
61351;DHT22;47119;49.130;9.218;2023-09-18T00:44:48;21.12;76.96
61351;DHT22;47119;49.130;9.218;2023-09-18T00:47:15;21.11;76.91
61351;DHT22;47119;49.130;9.218;2023-09-18T00:49:45;21.09;76.95
61351;DHT22;47119;49.130;9.218;2023-09-18T00:52:20;21.09;77.06
61351;DHT22;47119;49.130;9.218;2023-09-18T00:54:51;21.09;76.89
61351;DHT22;47119;49.130;9.218;2023-09-18T00:57:19;21.06;76.98
61351;DHT22;47119;49.130;9.218;2023-09-18T00:59:46;21.08;77.21
61351;DHT22;47119;49.130;9.218;2023-09-18T01:02:16;21.06;77.11
61351;DHT22;47119;49.130;9.218;2023-09-18T01:04:45;21.08;77.13
61351;DHT22;47119;49.130;9.218;2023-09-18T01:07:14;21.09;77.21
61351;DHT22;47119;49.130;9.218;2023-09-18T01:09:41;21.09;77.02
61351;DHT22;47119;49.130;9.218;2023-09-18T01:12:17;21.08;76.99
61351;DHT22;47119;49.130;9.218;2023-09-18T01:14:54;21.09;76.95
61351;DHT22;47119;49.130;9.218;2023-09-18T01:17:26;21.08;77.25
61351;DHT22;47119;49.130;9.218;2023-09-18T01:19:55;21.08;77.15
61351;DHT22;47119;49.130;9.218;2023-09-18T01:22:30;21.11;77.09
61351;DHT22;47119;49.130;9.218;2023-09-18T01:24:57;21.08;77.05
61351;DHT22;47119;49.130;9.218;2023-09-18T01:27:24;21.06;77.03
61351;DHT22;47119;49.130;9.218;2023-09-18T01:29:51;21.09;77.36
61351;DHT22;47119;49.130;9.218;2023-09-18T01:32:21;21.09;76.98
61351;DHT22;47119;49.130;9.218;2023-09-18T01:34:54;21.06;76.95
61351;DHT22;47119;49.130;9.218;2023-09-18T01:37:25;21.08;77.24
61351;DHT22;47119;49.130;9.218;2023-09-18T01:39:56;21.08;77.31
61351;DHT22;47119;49.130;9.218;2023-09-18T01:42:28;21.08;77.15
61351;DHT22;47119;49.130;9.218;2023-09-18T01:44:56;21.09;77.04
61351;DHT22;47119;49.130;9.218;2023-09-18T01:47:26;21.08;77.00
61351;DHT22;47119;49.130;9.218;2023-09-18T01:49:53;21.08;77.10
61351;DHT22;47119;49.130;9.218;2023-09-18T01:52:22;21.08;77.43
61351;DHT22;47119;49.130;9.218;2023-09-18T01:54:49;21.08;77.21
61351;DHT22;47119;49.130;9.218;2023-09-18T01:57:20;21.09;77.21
61351;DHT22;47119;49.130;9.218;2023-09-18T01:59:48;21.09;77.32
61351;DHT22;47119;49.130;9.218;2023-09-18T02:02:17;21.08;77.07
61351;DHT22;47119;49.130;9.218;2023-09-18T02:04:44;21.11;77.16
61351;DHT22;47119;49.130;9.218;2023-09-18T02:07:11;21.11;77.16
61351;DHT22;47119;49.130;9.218;2023-09-18T02:09:42;21.12;77.06
61351;DHT22;47119;49.130;9.218;2023-09-18T02:12:12;21.11;77.08
61351;DHT22;47119;49.130;9.218;2023-09-18T02:14:44;21.12;77.10
61351;DHT22;47119;49.130;9.218;2023-09-18T02:17:13;21.12;77.05
61351;DHT22;47119;49.130;9.218;2023-09-18T02:19:44;21.12;77.04
61351;DHT22;47119;49.130;9.218;2023-09-18T02:22:15;21.12;77.04
61351;DHT22;47119;49.130;9.218;2023-09-18T02:24:42;21.09;76.98
61351;DHT22;47119;49.130;9.218;2023-09-18T02:27:09;21.09;76.93
61351;DHT22;47119;49.130;9.218;2023-09-18T02:29:39;21.09;76.87
61351;DHT22;47119;49.130;9.218;2023-09-18T02:32:09;21.12;76.68
61351;DHT22;47119;49.130;9.218;2023-09-18T02:34:40;21.14;76.65
61351;DHT22;47119;49.130;9.218;2023-09-18T02:37:09;21.15;76.68
61351;DHT22;47119;49.130;9.218;2023-09-18T02:39:38;21.16;76.62
61351;DHT22;47119;49.130;9.218;2023-09-18T02:42:06;21.15;76.64
61351;DHT22;47119;49.130;9.218;2023-09-18T02:44:36;21.16;76.72
61351;DHT22;47119;49.130;9.218;2023-09-18T02:47:03;21.14;76.81
61351;DHT22;47119;49.130;9.218;2023-09-18T02:49:34;21.12;77.04
61351;DHT22;47119;49.130;9.218;2023-09-18T02:52:05;21.14;76.98
61351;DHT22;47119;49.130;9.218;2023-09-18T02:54:32;21.14;77.06
61351;DHT22;47119;49.130;9.218;2023-09-18T02:56:59;21.11;77.12
61351;DHT22;47119;49.130;9.218;2023-09-18T02:59:29;21.09;77.26
61351;DHT22;47119;49.130;9.218;2023-09-18T03:01:56;21.14;77.28
61351;DHT22;47119;49.130;9.218;2023-09-18T03:04:23;21.11;77.27
61351;DHT22;47119;49.130;9.218;2023-09-18T03:06:52;21.15;77.22
61351;DHT22;47119;49.130;9.218;2023-09-18T03:09:22;21.12;77.17
61351;DHT22;47119;49.130;9.218;2023-09-18T03:11:49;21.12;77.25
61351;DHT22;47119;49.130;9.218;2023-09-18T03:14:16;21.09;77.25
61351;DHT22;47119;49.130;9.218;2023-09-18T03:16:46;21.11;77.36
61351;DHT22;47119;49.130;9.218;2023-09-18T03:19:15;21.09;77.47
61351;DHT22;47119;49.130;9.218;2023-09-18T03:21:43;21.09;77.37
61351;DHT22;47119;49.130;9.218;2023-09-18T03:24:16;21.06;77.44
61351;DHT22;47119;49.130;9.218;2023-09-18T03:26:46;21.08;77.38
61351;DHT22;47119;49.130;9.218;2023-09-18T03:29:14;21.05;77.44
61351;DHT22;47119;49.130;9.218;2023-09-18T03:31:41;21.08;77.40
61351;DHT22;47119;49.130;9.218;2023-09-18T03:34:11;21.06;77.47
61351;DHT22;47119;49.130;9.218;2023-09-18T03:36:38;21.08;77.52
61351;DHT22;47119;49.130;9.218;2023-09-18T03:39:05;21.06;77.59
61351;DHT22;47119;49.130;9.218;2023-09-18T03:41:34;21.06;77.53
61351;DHT22;47119;49.130;9.218;2023-09-18T03:44:04;21.06;77.38
61351;DHT22;47119;49.130;9.218;2023-09-18T03:46:33;21.08;77.40
61351;DHT22;47119;49.130;9.218;2023-09-18T03:49:00;21.08;77.40
61351;DHT22;47119;49.130;9.218;2023-09-18T03:51:29;21.08;77.48
61351;DHT22;47119;49.130;9.218;2023-09-18T03:53:56;21.09;77.55
61351;DHT22;47119;49.130;9.218;2023-09-18T03:56:23;21.12;77.33
61351;DHT22;47119;49.130;9.218;2023-09-18T03:58:55;21.18;77.19
61351;DHT22;47119;49.130;9.218;2023-09-18T04:01:29;21.21;77.09
61351;DHT22;47119;49.130;9.218;2023-09-18T04:04:00;21.16;77.28
61351;DHT22;47119;49.130;9.218;2023-09-18T04:06:36;21.16;77.23
61351;DHT22;47119;49.130;9.218;2023-09-18T04:09:04;21.16;77.17
61351;DHT22;47119;49.130;9.218;2023-09-18T04:11:32;21.16;77.24
61351;DHT22;47119;49.130;9.218;2023-09-18T04:14:03;21.15;77.16
61351;DHT22;47119;49.130;9.218;2023-09-18T04:16:30;21.14;77.24
61351;DHT22;47119;49.130;9.218;2023-09-18T04:19:01;21.15;77.22
61351;DHT22;47119;49.130;9.218;2023-09-18T04:21:28;21.15;77.22
61351;DHT22;47119;49.130;9.218;2023-09-18T04:23:55;21.18;77.34
61351;DHT22;47119;49.130;9.218;2023-09-18T04:26:24;21.15;77.44
61351;DHT22;47119;49.130;9.218;2023-09-18T04:28:55;21.15;77.38
61351;DHT22;47119;49.130;9.218;2023-09-18T04:31:26;21.16;77.43
61351;DHT22;47119;49.130;9.218;2023-09-18T04:33:56;21.19;77.16
61351;DHT22;47119;49.130;9.218;2023-09-18T04:36:23;21.18;77.05
61351;DHT22;47119;49.130;9.218;2023-09-18T04:38:50;21.18;77.24
61351;DHT22;47119;49.130;9.218;2023-09-18T04:41:20;21.18;77.25
61351;DHT22;47119;49.130;9.218;2023-09-18T04:43:52;21.22;77.18
61351;DHT22;47119;49.130;9.218;2023-09-18T04:46:21;21.21;77.34
61351;DHT22;47119;49.130;9.218;2023-09-18T04:48:52;21.25;77.21
61351;DHT22;47119;49.130;9.218;2023-09-18T04:51:19;21.24;77.05
61351;DHT22;47119;49.130;9.218;2023-09-18T04:53:46;21.18;77.30
61351;DHT22;47119;49.130;9.218;2023-09-18T04:56:14;21.18;77.42
61351;DHT22;47119;49.130;9.218;2023-09-18T04:58:41;21.19;77.43
61351;DHT22;47119;49.130;9.218;2023-09-18T05:01:08;21.19;77.72
61351;DHT22;47119;49.130;9.218;2023-09-18T05:03:38;21.19;77.75
61351;DHT22;47119;49.130;9.218;2023-09-18T05:06:06;21.19;78.02
61351;DHT22;47119;49.130;9.218;2023-09-18T05:08:36;21.16;77.71
61351;DHT22;47119;49.130;9.218;2023-09-18T05:11:04;21.14;77.70
61351;DHT22;47119;49.130;9.218;2023-09-18T05:13:31;21.14;78.28
61351;DHT22;47119;49.130;9.218;2023-09-18T05:16:00;21.15;78.05
61351;DHT22;47119;49.130;9.218;2023-09-18T05:18:29;21.18;78.15
61351;DHT22;47119;49.130;9.218;2023-09-18T05:20:59;21.12;77.79
61351;DHT22;47119;49.130;9.218;2023-09-18T05:23:29;21.08;78.55
61351;DHT22;47119;49.130;9.218;2023-09-18T05:26:01;21.11;78.78
61351;DHT22;47119;49.130;9.218;2023-09-18T05:28:28;21.18;78.77
61351;DHT22;47119;49.130;9.218;2023-09-18T05:31:01;21.16;78.70
61351;DHT22;47119;49.130;9.218;2023-09-18T05:33:29;21.15;78.75
61351;DHT22;47119;49.130;9.218;2023-09-18T05:36:31;21.15;79.43
61351;DHT22;47119;49.130;9.218;2023-09-18T05:39:00;21.15;79.37
61351;DHT22;47119;49.130;9.218;2023-09-18T05:41:36;21.16;79.65
61351;DHT22;47119;49.130;9.218;2023-09-18T05:44:15;21.18;78.97
61351;DHT22;47119;49.130;9.218;2023-09-18T05:46:44;21.16;79.61
61351;DHT22;47119;49.130;9.218;2023-09-18T05:49:11;21.18;79.30
61351;DHT22;47119;49.130;9.218;2023-09-18T05:51:39;21.16;79.08
61351;DHT22;47119;49.130;9.218;2023-09-18T05:54:07;21.19;79.32
61351;DHT22;47119;49.130;9.218;2023-09-18T05:56:34;21.19;79.49
61351;DHT22;47119;49.130;9.218;2023-09-18T05:59:01;21.19;79.37
61351;DHT22;47119;49.130;9.218;2023-09-18T06:01:31;21.16;79.59
61351;DHT22;47119;49.130;9.218;2023-09-18T06:04:01;21.18;79.80
61351;DHT22;47119;49.130;9.218;2023-09-18T06:06:31;21.18;79.65
61351;DHT22;47119;49.130;9.218;2023-09-18T06:09:00;21.16;79.56
61351;DHT22;47119;49.130;9.218;2023-09-18T06:11:29;21.15;79.92
61351;DHT22;47119;49.130;9.218;2023-09-18T06:13:58;21.16;79.07
61351;DHT22;47119;49.130;9.218;2023-09-18T06:16:25;21.15;79.07
61351;DHT22;47119;49.130;9.218;2023-09-18T06:18:52;21.15;79.19
61351;DHT22;47119;49.130;9.218;2023-09-18T06:21:21;21.15;79.82
61351;DHT22;47119;49.130;9.218;2023-09-18T06:23:51;21.16;79.55
61351;DHT22;47119;49.130;9.218;2023-09-18T06:26:18;21.18;79.98
61351;DHT22;47119;49.130;9.218;2023-09-18T06:28:49;21.16;79.41
61351;DHT22;47119;49.130;9.218;2023-09-18T06:31:18;21.18;79.38
61351;DHT22;47119;49.130;9.218;2023-09-18T06:33:50;21.18;79.75
61351;DHT22;47119;49.130;9.218;2023-09-18T06:36:17;21.18;79.63
61351;DHT22;47119;49.130;9.218;2023-09-18T06:38:44;21.16;79.59
61351;DHT22;47119;49.130;9.218;2023-09-18T06:41:14;21.18;79.80
61351;DHT22;47119;49.130;9.218;2023-09-18T06:43:41;21.22;79.95
61351;DHT22;47119;49.130;9.218;2023-09-18T06:46:10;21.22;79.72
61351;DHT22;47119;49.130;9.218;2023-09-18T06:48:37;21.21;79.59
61351;DHT22;47119;49.130;9.218;2023-09-18T06:51:04;21.19;79.66
61351;DHT22;47119;49.130;9.218;2023-09-18T06:53:34;21.22;79.78
61351;DHT22;47119;49.130;9.218;2023-09-18T06:56:07;21.21;79.47
61351;DHT22;47119;49.130;9.218;2023-09-18T06:58:35;21.21;79.46
61351;DHT22;47119;49.130;9.218;2023-09-18T07:01:04;21.21;79.27
61351;DHT22;47119;49.130;9.218;2023-09-18T07:07:45;21.21;79.38
61351;DHT22;47119;49.130;9.218;2023-09-18T07:14:32;21.21;79.44
61351;DHT22;47119;49.130;9.218;2023-09-18T07:17:10;21.22;79.37
61351;DHT22;47119;49.130;9.218;2023-09-18T07:19:55;21.21;79.31
61351;DHT22;47119;49.130;9.218;2023-09-18T07:22:23;21.22;79.27
61351;DHT22;47119;49.130;9.218;2023-09-18T07:24:51;21.24;79.43
61351;DHT22;47119;49.130;9.218;2023-09-18T07:27:21;21.24;79.17
61351;DHT22;47119;49.130;9.218;2023-09-18T07:29:58;21.22;78.86
61351;DHT22;47119;49.130;9.218;2023-09-18T07:32:28;21.19;79.31
61351;DHT22;47119;49.130;9.218;2023-09-18T07:34:55;21.19;78.79
61351;DHT22;47119;49.130;9.218;2023-09-18T07:37:22;21.18;78.72
61351;DHT22;47119;49.130;9.218;2023-09-18T07:39:57;21.21;79.38
61351;DHT22;47119;49.130;9.218;2023-09-18T07:42:24;21.21;79.58
61351;DHT22;47119;49.130;9.218;2023-09-18T07:45:01;21.21;79.11
61351;DHT22;47119;49.130;9.218;2023-09-18T07:47:28;21.19;78.81
61351;DHT22;47119;49.130;9.218;2023-09-18T07:49:57;21.21;79.38
61351;DHT22;47119;49.130;9.218;2023-09-18T07:52:27;21.22;79.50
61351;DHT22;47119;49.130;9.218;2023-09-18T07:54:56;21.22;79.28
61351;DHT22;47119;49.130;9.218;2023-09-18T07:57:25;21.25;79.07
61351;DHT22;47119;49.130;9.218;2023-09-18T07:59:53;21.24;79.39
61351;DHT22;47119;49.130;9.218;2023-09-18T08:02:22;21.24;78.90
61351;DHT22;47119;49.130;9.218;2023-09-18T08:04:54;21.25;79.33
61351;DHT22;47119;49.130;9.218;2023-09-18T08:07:21;21.25;79.38
61351;DHT22;47119;49.130;9.218;2023-09-18T08:09:48;21.26;79.42
61351;DHT22;47119;49.130;9.218;2023-09-18T08:12:16;21.31;79.27
61351;DHT22;47119;49.130;9.218;2023-09-18T08:14:43;21.28;79.52
61351;DHT22;47119;49.130;9.218;2023-09-18T08:17:10;21.28;79.35
61351;DHT22;47119;49.130;9.218;2023-09-18T08:19:37;21.29;79.53
61351;DHT22;47119;49.130;9.218;2023-09-18T08:22:08;21.28;79.46
61351;DHT22;47119;49.130;9.218;2023-09-18T08:24:37;21.29;79.53
61351;DHT22;47119;49.130;9.218;2023-09-18T08:27:04;21.34;79.41
61351;DHT22;47119;49.130;9.218;2023-09-18T08:29:35;21.31;79.40
61351;DHT22;47119;49.130;9.218;2023-09-18T08:32:04;21.35;79.52
61351;DHT22;47119;49.130;9.218;2023-09-18T08:34:34;21.26;79.50
61351;DHT22;47119;49.130;9.218;2023-09-18T08:37:01;21.29;79.56
61351;DHT22;47119;49.130;9.218;2023-09-18T08:39:29;21.36;79.42
61351;DHT22;47119;49.130;9.218;2023-09-18T08:42:04;21.35;79.40
61351;DHT22;47119;49.130;9.218;2023-09-18T08:44:38;21.34;79.43
61351;DHT22;47119;49.130;9.218;2023-09-18T08:47:08;21.32;79.55
61351;DHT22;47119;49.130;9.218;2023-09-18T08:49:39;21.35;79.53
61351;DHT22;47119;49.130;9.218;2023-09-18T08:52:08;21.34;79.42
61351;DHT22;47119;49.130;9.218;2023-09-18T08:54:36;21.35;79.22
61351;DHT22;47119;49.130;9.218;2023-09-18T08:57:16;21.35;79.44
61351;DHT22;47119;49.130;9.218;2023-09-18T08:59:49;21.32;79.38
61351;DHT22;47119;49.130;9.218;2023-09-18T09:02:22;21.32;79.07
61351;DHT22;47119;49.130;9.218;2023-09-18T09:04:49;21.29;79.23
61351;DHT22;47119;49.130;9.218;2023-09-18T09:07:42;21.31;79.41
61351;DHT22;47119;49.130;9.218;2023-09-18T09:10:09;21.32;79.43
61351;DHT22;47119;49.130;9.218;2023-09-18T09:16:17;21.32;79.22
61351;DHT22;47119;49.130;9.218;2023-09-18T09:18:49;21.29;79.33
61351;DHT22;47119;49.130;9.218;2023-09-18T09:21:17;21.29;79.89
61351;DHT22;47119;49.130;9.218;2023-09-18T09:29:20;21.24;79.88
61351;DHT22;47119;49.130;9.218;2023-09-18T10:00:07;21.09;82.56
61351;DHT22;47119;49.130;9.218;2023-09-18T10:03:00;21.06;82.51
61351;DHT22;47119;49.130;9.218;2023-09-18T10:05:31;21.08;82.55
61351;DHT22;47119;49.130;9.218;2023-09-18T10:08:04;21.08;82.64
61351;DHT22;47119;49.130;9.218;2023-09-18T10:10:38;21.06;82.03
61351;DHT22;47119;49.130;9.218;2023-09-18T10:13:15;21.08;82.42
61351;DHT22;47119;49.130;9.218;2023-09-18T10:15:44;21.09;82.50
61351;DHT22;47119;49.130;9.218;2023-09-18T10:18:21;21.08;82.70
61351;DHT22;47119;49.130;9.218;2023-09-18T10:21:47;21.06;82.76
61351;DHT22;47119;49.130;9.218;2023-09-18T10:25:28;21.09;82.58
61351;DHT22;47119;49.130;9.218;2023-09-18T10:28:25;21.09;82.72
61351;DHT22;47119;49.130;9.218;2023-09-18T10:42:12;21.08;82.81
61351;DHT22;47119;49.130;9.218;2023-09-18T11:57:30;21.11;81.32
61351;DHT22;47119;49.130;9.218;2023-09-18T12:18:47;21.16;80.89
61351;DHT22;47119;49.130;9.218;2023-09-18T12:21:17;21.19;80.58
61351;DHT22;47119;49.130;9.218;2023-09-18T12:23:54;21.16;80.93
61351;DHT22;47119;49.130;9.218;2023-09-18T12:26:37;21.16;80.81
61351;DHT22;47119;49.130;9.218;2023-09-18T12:29:36;21.12;80.78
61351;DHT22;47119;49.130;9.218;2023-09-18T12:39:22;21.09;80.67
61351;DHT22;47119;49.130;9.218;2023-09-18T12:42:47;21.12;80.55
61351;DHT22;47119;49.130;9.218;2023-09-18T12:45:40;21.14;80.44
61351;DHT22;47119;49.130;9.218;2023-09-18T12:48:32;21.12;80.30
61351;DHT22;47119;49.130;9.218;2023-09-18T12:51:13;21.15;80.24
61351;DHT22;47119;49.130;9.218;2023-09-18T12:54:00;21.11;80.08
61351;DHT22;47119;49.130;9.218;2023-09-18T12:56:43;21.08;80.01
61351;DHT22;47119;49.130;9.218;2023-09-18T12:59:31;21.14;79.82
61351;DHT22;47119;49.130;9.218;2023-09-18T13:02:01;21.12;79.63
61351;DHT22;47119;49.130;9.218;2023-09-18T13:04:51;21.16;79.54
61351;DHT22;47119;49.130;9.218;2023-09-18T13:07:30;21.15;79.67
61351;DHT22;47119;49.130;9.218;2023-09-18T13:09:59;21.12;79.67
61351;DHT22;47119;49.130;9.218;2023-09-18T13:12:46;21.12;79.67
61351;DHT22;47119;49.130;9.218;2023-09-18T13:15:26;21.14;79.63
61351;DHT22;47119;49.130;9.218;2023-09-18T13:18:16;21.15;79.50
61351;DHT22;47119;49.130;9.218;2023-09-18T13:20:51;21.24;79.41
61351;DHT22;47119;49.130;9.218;2023-09-18T13:23:27;21.16;79.53
61351;DHT22;47119;49.130;9.218;2023-09-18T13:25:59;21.16;79.59
61351;DHT22;47119;49.130;9.218;2023-09-18T13:28:27;21.18;79.46
61351;DHT22;47119;49.130;9.218;2023-09-18T13:30:57;21.16;79.49
61351;DHT22;47119;49.130;9.218;2023-09-18T13:33:38;21.16;79.49
61351;DHT22;47119;49.130;9.218;2023-09-18T13:36:14;21.15;79.25
61351;DHT22;47119;49.130;9.218;2023-09-18T13:38:44;21.18;79.20
61351;DHT22;47119;49.130;9.218;2023-09-18T13:41:13;21.19;79.15
61351;DHT22;47119;49.130;9.218;2023-09-18T13:43:48;21.18;79.04
61351;DHT22;47119;49.130;9.218;2023-09-18T13:47:09;21.15;79.12
61351;DHT22;47119;49.130;9.218;2023-09-18T13:57:42;21.15;78.90
61351;DHT22;47119;49.130;9.218;2023-09-18T14:05:00;21.19;78.65
61351;DHT22;47119;49.130;9.218;2023-09-18T14:09:01;21.18;78.50
61351;DHT22;47119;49.130;9.218;2023-09-18T14:15:46;21.18;78.64
61351;DHT22;47119;49.130;9.218;2023-09-18T14:18:36;21.18;78.54
61351;DHT22;47119;49.130;9.218;2023-09-18T14:21:08;21.16;78.67
61351;DHT22;47119;49.130;9.218;2023-09-18T14:23:35;21.16;78.52
61351;DHT22;47119;49.130;9.218;2023-09-18T14:26:08;21.15;78.61
61351;DHT22;47119;49.130;9.218;2023-09-18T14:28:38;21.15;78.48
61351;DHT22;47119;49.130;9.218;2023-09-18T14:31:07;21.18;78.45
61351;DHT22;47119;49.130;9.218;2023-09-18T14:33:39;21.16;78.59
61351;DHT22;47119;49.130;9.218;2023-09-18T14:36:06;21.15;78.62
61351;DHT22;47119;49.130;9.218;2023-09-18T14:38:33;21.12;78.53
61351;DHT22;47119;49.130;9.218;2023-09-18T14:41:01;21.12;78.69
61351;DHT22;47119;49.130;9.218;2023-09-18T14:43:32;21.15;78.50
61351;DHT22;47119;49.130;9.218;2023-09-18T14:46:03;21.16;78.27
61351;DHT22;47119;49.130;9.218;2023-09-18T14:48:30;21.18;78.27
61351;DHT22;47119;49.130;9.218;2023-09-18T14:50:58;21.25;77.92
61351;DHT22;47119;49.130;9.218;2023-09-18T14:53:25;21.19;78.16
61351;DHT22;47119;49.130;9.218;2023-09-18T14:55:54;21.21;78.21
61351;DHT22;47119;49.130;9.218;2023-09-18T14:58:25;21.16;78.39
61351;DHT22;47119;49.130;9.218;2023-09-18T15:00:54;21.14;78.28
61351;DHT22;47119;49.130;9.218;2023-09-18T15:03:26;21.15;78.07
61351;DHT22;47119;49.130;9.218;2023-09-18T15:05:55;21.15;77.73
61351;DHT22;47119;49.130;9.218;2023-09-18T15:08:22;21.15;78.04
61351;DHT22;47119;49.130;9.218;2023-09-18T15:10:49;21.16;77.49
61351;DHT22;47119;49.130;9.218;2023-09-18T15:13:18;21.21;77.66
61351;DHT22;47119;49.130;9.218;2023-09-18T15:15:45;21.14;78.07
61351;DHT22;47119;49.130;9.218;2023-09-18T15:18:16;21.14;78.15
61351;DHT22;47119;49.130;9.218;2023-09-18T15:20:45;21.21;77.30
61351;DHT22;47119;49.130;9.218;2023-09-18T15:23:15;21.18;77.27
61351;DHT22;47119;49.130;9.218;2023-09-18T15:25:43;21.19;77.35
61351;DHT22;47119;49.130;9.218;2023-09-18T15:28:12;21.21;77.27
61351;DHT22;47119;49.130;9.218;2023-09-18T15:30:42;21.19;77.65
61351;DHT22;47119;49.130;9.218;2023-09-18T15:33:12;21.21;77.15
61351;DHT22;47119;49.130;9.218;2023-09-18T15:35:41;21.19;77.24
61351;DHT22;47119;49.130;9.218;2023-09-18T15:38:08;21.21;77.49
61351;DHT22;47119;49.130;9.218;2023-09-18T15:40:36;21.16;77.45
61351;DHT22;47119;49.130;9.218;2023-09-18T15:43:05;21.16;76.80
61351;DHT22;47119;49.130;9.218;2023-09-18T15:45:32;21.16;77.09
61351;DHT22;47119;49.130;9.218;2023-09-18T15:48:05;21.18;77.08
61351;DHT22;47119;49.130;9.218;2023-09-18T15:50:39;21.16;77.52
61351;DHT22;47119;49.130;9.218;2023-09-18T15:53:09;21.18;77.18
61351;DHT22;47119;49.130;9.218;2023-09-18T15:55:38;21.12;77.19
61351;DHT22;47119;49.130;9.218;2023-09-18T15:58:05;21.18;76.73
61351;DHT22;47119;49.130;9.218;2023-09-18T16:00:32;21.18;76.53
61351;DHT22;47119;49.130;9.218;2023-09-18T16:02:59;21.21;76.73
61351;DHT22;47119;49.130;9.218;2023-09-18T16:05:26;21.19;76.47
61351;DHT22;47119;49.130;9.218;2023-09-18T16:07:53;21.21;76.58
61351;DHT22;47119;49.130;9.218;2023-09-18T16:10:25;21.21;76.16
61351;DHT22;47119;49.130;9.218;2023-09-18T16:12:52;21.19;76.38
61351;DHT22;47119;49.130;9.218;2023-09-18T16:15:22;21.15;77.05
61351;DHT22;47119;49.130;9.218;2023-09-18T16:17:51;21.12;76.78
61351;DHT22;47119;49.130;9.218;2023-09-18T16:20:23;21.14;77.01
61351;DHT22;47119;49.130;9.218;2023-09-18T16:22:52;21.15;76.65
61351;DHT22;47119;49.130;9.218;2023-09-18T16:25:19;21.16;76.90
61351;DHT22;47119;49.130;9.218;2023-09-18T16:27:52;21.18;76.27
61351;DHT22;47119;49.130;9.218;2023-09-18T16:30:22;21.19;75.51
61351;DHT22;47119;49.130;9.218;2023-09-18T16:32:52;21.16;76.33
61351;DHT22;47119;49.130;9.218;2023-09-18T16:35:21;21.18;76.17
61351;DHT22;47119;49.130;9.218;2023-09-18T16:37:48;21.19;76.64
61351;DHT22;47119;49.130;9.218;2023-09-18T16:40:15;21.21;76.23
61351;DHT22;47119;49.130;9.218;2023-09-18T16:42:44;21.19;76.78
61351;DHT22;47119;49.130;9.218;2023-09-18T16:45:15;21.21;76.10
61351;DHT22;47119;49.130;9.218;2023-09-18T16:47:42;21.19;76.28
61351;DHT22;47119;49.130;9.218;2023-09-18T16:50:09;21.18;76.04
61351;DHT22;47119;49.130;9.218;2023-09-18T16:52:39;21.21;76.09
61351;DHT22;47119;49.130;9.218;2023-09-18T16:55:14;21.18;76.00
61351;DHT22;47119;49.130;9.218;2023-09-18T16:57:45;21.16;76.37
61351;DHT22;47119;49.130;9.218;2023-09-18T17:00:13;21.16;76.30
61351;DHT22;47119;49.130;9.218;2023-09-18T17:02:44;21.16;75.94
61351;DHT22;47119;49.130;9.218;2023-09-18T17:05:14;21.16;75.86
61351;DHT22;47119;49.130;9.218;2023-09-18T17:07:40;21.15;76.45
61351;DHT22;47119;49.130;9.218;2023-09-18T17:10:10;21.14;76.76
61351;DHT22;47119;49.130;9.218;2023-09-18T17:12:39;21.14;76.04
61351;DHT22;47119;49.130;9.218;2023-09-18T17:15:07;21.16;76.17
61351;DHT22;47119;49.130;9.218;2023-09-18T17:17:35;21.14;76.28
61351;DHT22;47119;49.130;9.218;2023-09-18T17:20:06;21.15;75.81
61351;DHT22;47119;49.130;9.218;2023-09-18T17:22:33;21.12;75.59
61351;DHT22;47119;49.130;9.218;2023-09-18T17:25:03;21.14;75.64
61351;DHT22;47119;49.130;9.218;2023-09-18T17:27:32;21.16;75.56
61351;DHT22;47119;49.130;9.218;2023-09-18T17:29:59;21.12;75.48
61351;DHT22;47119;49.130;9.218;2023-09-18T17:32:27;21.14;75.79
61351;DHT22;47119;49.130;9.218;2023-09-18T17:34:54;21.12;75.49
61351;DHT22;47119;49.130;9.218;2023-09-18T17:37:24;21.12;74.99
61351;DHT22;47119;49.130;9.218;2023-09-18T17:39:52;21.12;75.87
61351;DHT22;47119;49.130;9.218;2023-09-18T17:42:19;21.12;75.33
61351;DHT22;47119;49.130;9.218;2023-09-18T17:44:49;21.09;76.00
61351;DHT22;47119;49.130;9.218;2023-09-18T17:47:16;21.12;74.94
61351;DHT22;47119;49.130;9.218;2023-09-18T17:49:43;21.11;75.04
61351;DHT22;47119;49.130;9.218;2023-09-18T17:52:10;21.14;75.04
61351;DHT22;47119;49.130;9.218;2023-09-18T17:54:43;21.09;76.12
61351;DHT22;47119;49.130;9.218;2023-09-18T17:57:12;21.06;75.26
61351;DHT22;47119;49.130;9.218;2023-09-18T17:59:39;21.09;74.95
61351;DHT22;47119;49.130;9.218;2023-09-18T18:02:06;21.08;74.82
61351;DHT22;47119;49.130;9.218;2023-09-18T18:04:33;21.08;75.60
61351;DHT22;47119;49.130;9.218;2023-09-18T18:07:02;21.11;74.88
61351;DHT22;47119;49.130;9.218;2023-09-18T18:09:32;21.06;75.52
61351;DHT22;47119;49.130;9.218;2023-09-18T18:12:00;21.08;75.22
61351;DHT22;47119;49.130;9.218;2023-09-18T18:14:30;21.09;74.77
61351;DHT22;47119;49.130;9.218;2023-09-18T18:17:00;21.11;75.14
61351;DHT22;47119;49.130;9.218;2023-09-18T18:19:27;21.12;74.85
61351;DHT22;47119;49.130;9.218;2023-09-18T18:21:57;21.16;75.43
61351;DHT22;47119;49.130;9.218;2023-09-18T18:24:24;21.15;75.88
61351;DHT22;47119;49.130;9.218;2023-09-18T18:26:51;21.09;77.83
61351;DHT22;47119;49.130;9.218;2023-09-18T18:29:22;20.92;78.51
61351;DHT22;47119;49.130;9.218;2023-09-18T18:31:52;20.92;78.99
61351;DHT22;47119;49.130;9.218;2023-09-18T18:34:19;20.84;79.42
61351;DHT22;47119;49.130;9.218;2023-09-18T18:36:50;20.84;79.62
61351;DHT22;47119;49.130;9.218;2023-09-18T18:39:21;20.84;80.32
61351;DHT22;47119;49.130;9.218;2023-09-18T18:41:54;20.83;80.75
61351;DHT22;47119;49.130;9.218;2023-09-18T18:44:25;20.78;81.10
61351;DHT22;47119;49.130;9.218;2023-09-18T18:46:52;20.77;81.52